createdAt,value
2022-09-24T00:04:12.077Z,11.89
2022-09-24T00:09:16.632Z,11.81
2022-09-24T00:14:19.657Z,11.76
2022-09-24T00:19:23.530Z,11.73
2022-09-24T00:24:47.935Z,11.66
2022-09-24T00:29:50.536Z,11.58
2022-09-24T00:34:54.857Z,11.54
2022-09-24T00:39:57.528Z,11.54
2022-09-24T00:45:00.969Z,11.46
2022-09-24T00:50:14.165Z,11.35
2022-09-24T00:55:17.331Z,11.25
2022-09-24T01:00:20.136Z,11.29
2022-09-24T01:05:24.040Z,11.34
2022-09-24T01:10:51.111Z,11.35
2022-09-24T01:15:58.375Z,11.40
2022-09-24T01:21:12.849Z,11.45
2022-09-24T01:26:26.201Z,11.48
2022-09-24T01:31:33.336Z,11.50
2022-09-24T01:36:37.670Z,11.43
2022-09-24T01:41:40.648Z,11.44
2022-09-24T01:46:44.637Z,11.40
2022-09-24T01:51:49.557Z,11.37
2022-09-24T01:56:55.492Z,11.39
2022-09-24T02:02:05.605Z,11.40
2022-09-24T02:07:13.402Z,11.36
2022-09-24T02:12:17.726Z,11.33
2022-09-24T02:17:23.174Z,11.31
2022-09-24T02:22:26.520Z,11.28
2022-09-24T02:27:29.542Z,11.28
2022-09-24T02:32:35.661Z,11.23
2022-09-24T02:37:40.918Z,11.28
2022-09-24T02:42:43.856Z,11.29
2022-09-24T02:47:48.407Z,11.31
2022-09-24T02:52:50.980Z,11.27
2022-09-24T02:57:53.815Z,11.25
2022-09-24T03:02:57.935Z,11.27
2022-09-24T03:08:00.539Z,11.30
2022-09-24T03:13:03.088Z,11.29
2022-09-24T03:18:07.489Z,11.20
2022-09-24T03:23:10.060Z,11.22
2022-09-24T03:28:12.671Z,11.24
2022-09-24T03:33:16.613Z,11.19
2022-09-24T03:38:19.219Z,11.04
2022-09-24T03:43:22.053Z,10.98
2022-09-24T03:48:26.773Z,11.01
2022-09-24T03:53:29.339Z,11.04
2022-09-24T03:58:32.145Z,10.94
2022-09-24T04:03:36.643Z,10.79
2022-09-24T04:08:39.213Z,10.77
2022-09-24T04:13:41.770Z,10.76
2022-09-24T04:18:48.694Z,10.76
2022-09-24T04:23:51.326Z,10.78
2022-09-24T04:28:53.903Z,10.75
2022-09-24T04:33:57.824Z,10.70
2022-09-24T04:39:00.470Z,10.70
2022-09-24T04:44:03.778Z,10.65
2022-09-24T04:49:09.591Z,10.63
2022-09-24T04:54:12.470Z,10.57
2022-09-24T04:59:15.050Z,10.57
2022-09-24T05:04:19.056Z,10.57
2022-09-24T05:09:21.639Z,10.54
2022-09-24T05:14:24.220Z,10.56
2022-09-24T05:19:28.136Z,10.57
2022-09-24T05:24:30.815Z,10.57
2022-09-24T05:29:33.493Z,10.55
2022-09-24T05:34:37.473Z,10.62
2022-09-24T05:39:40.183Z,10.64
2022-09-24T05:44:44.810Z,10.60
2022-09-24T05:49:50.358Z,10.63
2022-09-24T05:54:57.178Z,10.67
2022-09-24T05:59:59.747Z,10.76
2022-09-24T06:05:03.725Z,10.87
2022-09-24T06:10:08.188Z,10.92
2022-09-24T06:15:12.394Z,10.96
2022-09-24T06:20:16.444Z,11.09
2022-09-24T06:25:19.046Z,11.16
2022-09-24T06:30:21.622Z,11.16
2022-09-24T06:35:25.568Z,11.12
2022-09-24T06:40:31.366Z,11.17
2022-09-24T06:45:38.547Z,11.16
2022-09-24T06:50:45.061Z,11.28
2022-09-24T06:55:47.787Z,11.43
2022-09-24T07:00:54.522Z,11.52
2022-09-24T07:06:01.694Z,11.67
2022-09-24T07:11:04.445Z,11.77
2022-09-24T07:16:07.507Z,11.94
2022-09-24T07:21:11.628Z,12.06
2022-09-24T07:26:14.295Z,12.30
2022-09-24T07:31:17.738Z,12.40
2022-09-24T07:36:21.818Z,12.55
2022-09-24T07:41:24.777Z,12.72
2022-09-24T07:46:27.654Z,12.83
2022-09-24T07:51:31.685Z,12.94
2022-09-24T07:56:34.938Z,13.06
2022-09-24T08:01:37.814Z,13.09
2022-09-24T08:06:47.262Z,13.20
2022-09-24T08:11:50.939Z,13.32
2022-09-24T08:16:53.639Z,13.39
2022-09-24T08:21:58.682Z,13.46
2022-09-24T08:27:04.583Z,13.52
2022-09-24T08:32:07.549Z,13.64
2022-09-24T08:37:11.442Z,13.81
2022-09-24T08:42:36.456Z,13.96
2022-09-24T08:47:45.683Z,14.06
2022-09-24T08:53:01.370Z,14.10
2022-09-24T08:58:22.673Z,14.20
2022-09-24T09:03:32.734Z,14.34
2022-09-24T09:09:01.689Z,14.51
2022-09-24T09:14:10.841Z,14.77
2022-09-24T09:19:15.505Z,14.99
2022-09-24T09:24:23.253Z,15.16
2022-09-24T09:29:28.185Z,15.11
2022-09-24T09:34:42.034Z,15.06
2022-09-24T09:39:50.828Z,15.08
2022-09-24T09:44:53.603Z,15.03
2022-09-24T09:49:58.842Z,15.16
2022-09-24T09:55:05.983Z,15.25
2022-09-24T10:00:26.606Z,15.28
2022-09-24T10:05:29.546Z,15.28
2022-09-24T10:10:33.609Z,15.40
2022-09-24T10:15:45.350Z,15.49
2022-09-24T10:20:49.464Z,15.91
2022-09-24T10:25:59.646Z,16.45
2022-09-24T10:31:07.188Z,16.59
2022-09-24T10:36:16.087Z,16.55
2022-09-24T10:41:27.121Z,16.72
2022-09-24T10:47:01.705Z,16.58
2022-09-24T10:52:10.307Z,16.44
2022-09-24T10:57:25.266Z,16.93
2022-09-24T11:02:59.826Z,17.40
2022-09-24T11:08:18.798Z,17.98
2022-09-24T11:13:28.028Z,18.81
2022-09-24T11:18:38.836Z,23.68
2022-09-24T11:23:54.402Z,28.18
2022-09-24T11:29:10.610Z,28.47
2022-09-24T11:34:30.534Z,27.86
2022-09-24T11:39:44.606Z,28.00
2022-09-24T11:44:58.143Z,28.80
2022-09-24T11:50:13.317Z,25.56
2022-09-24T11:55:21.142Z,22.72
2022-09-24T12:00:29.684Z,25.89
2022-09-24T12:05:35.321Z,26.71
2022-09-24T12:10:40.247Z,27.03
2022-09-24T12:15:49.081Z,30.92
2022-09-24T12:20:54.269Z,34.37
2022-09-24T12:25:59.151Z,28.42
2022-09-24T12:31:32.737Z,25.02
2022-09-24T12:36:56.944Z,22.67
2022-09-24T12:42:02.825Z,21.41
2022-09-24T12:47:16.306Z,20.30
2022-09-24T12:52:29.711Z,20.08
2022-09-24T12:57:36.077Z,19.98
2022-09-24T13:02:47.867Z,19.84
2022-09-24T13:07:59.659Z,19.75
2022-09-24T13:13:03.010Z,20.77
2022-09-24T13:18:22.287Z,20.94
2022-09-24T13:23:45.218Z,22.77
2022-09-24T13:28:55.379Z,23.34
2022-09-24T13:34:02.698Z,23.38
2022-09-24T13:39:11.553Z,23.01
2022-09-24T13:44:18.314Z,23.23
2022-09-24T13:49:23.142Z,23.48
2022-09-24T13:54:30.134Z,23.06
2022-09-24T13:59:32.782Z,23.00
2022-09-24T14:04:41.987Z,23.22
2022-09-24T14:09:47.610Z,23.12
2022-09-24T14:14:57.345Z,22.86
2022-09-24T14:20:01.256Z,22.61
2022-09-24T14:25:08.600Z,21.86
2022-09-24T14:30:20.075Z,21.15
2022-09-24T14:35:29.997Z,20.78
2022-09-24T14:40:40.433Z,20.77
2022-09-24T14:45:43.313Z,20.83
2022-09-24T14:50:47.517Z,21.81
2022-09-24T14:55:50.782Z,21.76
2022-09-24T15:00:56.034Z,22.57
2022-09-24T15:06:18.058Z,23.24
2022-09-24T15:11:21.270Z,23.78
2022-09-24T15:16:30.353Z,26.38
2022-09-24T15:21:34.913Z,28.76
2022-09-24T15:26:40.467Z,29.43
2022-09-24T15:31:43.423Z,30.04
2022-09-24T15:36:49.415Z,30.24
2022-09-24T15:41:52.240Z,26.54
2022-09-24T15:46:55.023Z,23.28
2022-09-24T15:52:01.917Z,21.82
2022-09-24T15:57:04.832Z,20.67
2022-09-24T16:02:15.918Z,19.88
2022-09-24T16:07:19.962Z,19.39
2022-09-24T16:12:27.823Z,19.02
2022-09-24T16:17:30.780Z,18.71
2022-09-24T16:22:38.444Z,18.46
2022-09-24T16:27:41.220Z,18.24
2022-09-24T16:32:44.283Z,17.98
2022-09-24T16:37:48.313Z,17.73
2022-09-24T16:42:50.990Z,17.56
2022-09-24T16:47:53.615Z,17.40
2022-09-24T16:52:57.639Z,17.27
2022-09-24T16:58:00.659Z,17.16
2022-09-24T17:03:03.468Z,17.07
2022-09-24T17:08:07.532Z,17.00
2022-09-24T17:13:10.318Z,16.96
2022-09-24T17:18:13.034Z,16.84
2022-09-24T17:23:17.198Z,16.77
2022-09-24T17:28:19.864Z,16.71
2022-09-24T17:33:42.360Z,16.68
2022-09-24T17:38:46.819Z,16.64
2022-09-24T17:43:49.581Z,16.62
2022-09-24T17:48:54.309Z,16.53
2022-09-24T17:53:58.443Z,16.47
2022-09-24T17:59:01.426Z,16.38
2022-09-24T18:04:05.926Z,16.33
2022-09-24T18:09:11.354Z,16.30
2022-09-24T18:14:17.052Z,16.27
2022-09-24T18:19:19.914Z,16.21
2022-09-24T18:24:24.252Z,16.15
2022-09-24T18:29:27.604Z,16.04
2022-09-24T18:34:30.821Z,16.01
2022-09-24T18:39:35.017Z,15.93
2022-09-24T18:44:37.781Z,15.90
2022-09-24T18:49:40.593Z,15.85
2022-09-24T18:54:44.787Z,15.75
2022-09-24T18:59:48.694Z,15.65
2022-09-24T19:04:51.363Z,15.57
2022-09-24T19:09:55.650Z,15.49
2022-09-24T19:15:00.298Z,15.40
2022-09-24T19:20:03.378Z,15.29
2022-09-24T19:25:08.505Z,15.20
2022-09-24T19:30:12.424Z,15.13
2022-09-24T19:35:15.199Z,15.08
2022-09-24T19:40:19.653Z,14.99
2022-09-24T19:45:22.391Z,14.89
2022-09-24T19:50:25.012Z,14.86
2022-09-24T19:55:30.485Z,14.81
2022-09-24T20:00:33.476Z,14.78
2022-09-24T20:05:36.314Z,14.76
2022-09-24T20:10:40.903Z,14.65
2022-09-24T20:15:43.985Z,14.54
2022-09-24T20:20:46.764Z,14.52
2022-09-24T20:26:12.640Z,14.53
2022-09-24T20:31:20.781Z,14.56
2022-09-24T20:36:24.913Z,14.53
2022-09-24T20:41:29.439Z,14.52
2022-09-24T20:46:32.249Z,14.52
2022-09-24T20:51:35.118Z,14.52
2022-09-24T20:56:39.265Z,14.54
2022-09-24T21:01:42.797Z,14.49
2022-09-24T21:06:46.176Z,14.50
2022-09-24T21:11:50.484Z,14.46
2022-09-24T21:16:55.024Z,14.43
2022-09-24T21:21:59.444Z,14.37
2022-09-24T21:27:05.222Z,14.30
2022-09-24T21:32:07.838Z,14.27
2022-09-24T21:37:13.287Z,14.15
2022-09-24T21:42:19.769Z,14.07
2022-09-24T21:47:22.451Z,13.97
2022-09-24T21:52:26.617Z,13.89
2022-09-24T21:57:30.777Z,13.76
2022-09-24T22:02:33.524Z,13.72
2022-09-24T22:07:36.546Z,13.66
2022-09-24T22:12:40.648Z,13.57
2022-09-24T22:17:43.376Z,13.50
2022-09-24T22:22:46.044Z,13.38
2022-09-24T22:27:49.986Z,13.35
2022-09-24T22:32:52.582Z,13.29
2022-09-24T22:37:55.744Z,13.06
2022-09-24T22:42:59.830Z,12.72
2022-09-24T22:48:03.371Z,12.95
2022-09-24T22:53:05.982Z,13.10
2022-09-24T22:58:09.985Z,13.08
2022-09-24T23:03:12.555Z,12.96
2022-09-24T23:08:15.186Z,13.01
2022-09-24T23:13:19.119Z,12.93
2022-09-24T23:18:21.703Z,12.89
2022-09-24T23:23:24.299Z,12.82
2022-09-24T23:28:29.595Z,12.77
2022-09-24T23:33:33.570Z,12.67
2022-09-24T23:38:36.533Z,12.64
2022-09-24T23:43:41.054Z,12.63
2022-09-24T23:48:43.810Z,12.58
2022-09-24T23:53:46.398Z,12.48
2022-09-24T23:58:50.351Z,12.45
